Time;durP1;ratioP1;P1;durP2;ratioP2;P2;SDS_P1;SDS_P2;PMS_P1;PMS_P2;Temp;Humidity;BMP_temperature;BMP_pressure;BME280_temperature;BME280_humidity;BME280_pressure;Samples;Min_cycle;Max_cycle;Signal;HPM_P1;HPM_P2
2023/05/05 00:01:00;;;;;;;2.73;1.10;;;;;;;;;;5064669;27;89168;-50
2023/05/05 00:03:29;;;;;;;4.80;1.57;;;;;;;;;;5063397;27;87734;-50
2023/05/05 00:05:58;;;;;;;0.93;0.83;;;;;;;;;;5063333;27;88790;-50
2023/05/05 00:08:26;;;;;;;2.43;1.00;;;;;;;;;;5064108;27;87084;-50
2023/05/05 00:10:56;;;;;;;1.77;1.10;;;;;;;;;;5063330;27;90081;-50
2023/05/05 00:13:24;;;;;;;1.50;1.30;;;;;;;;;;5063220;27;87471;-50
2023/05/05 00:15:53;;;;;;;1.23;1.13;;;;;;;;;;5063696;27;86972;-50
2023/05/05 00:18:21;;;;;;;2.07;1.30;;;;;;;;;;5047121;27;87078;-50
2023/05/05 00:20:50;;;;;;;1.70;1.33;;;;;;;;;;5063746;27;89218;-50
2023/05/05 00:23:19;;;;;;;1.50;1.40;;;;;;;;;;5063914;27;87968;-50
2023/05/05 00:25:47;;;;;;;0.93;0.67;;;;;;;;;;5063951;27;86989;-50
2023/05/05 00:28:17;;;;;;;1.83;1.20;;;;;;;;;;5064092;27;86218;-50
2023/05/05 00:30:45;;;;;;;1.77;0.90;;;;;;;;;;5059397;27;88273;-50
2023/05/05 00:33:14;;;;;;;1.33;1.23;;;;;;;;;;5063739;27;87644;-50
2023/05/05 00:35:42;;;;;;;2.13;1.07;;;;;;;;;;5060674;27;87918;-50
2023/05/05 00:38:11;;;;;;;1.27;1.10;;;;;;;;;;5063921;27;87999;-50
2023/05/05 00:40:39;;;;;;;2.27;1.03;;;;;;;;;;5062534;27;88131;-50
2023/05/05 00:43:08;;;;;;;1.30;1.17;;;;;;;;;;5061777;27;88929;-51
2023/05/05 00:45:41;;;;;;;1.27;1.10;;;;;;;;;;5055351;27;86856;-50
2023/05/05 00:48:09;;;;;;;1.77;1.17;;;;;;;;;;5052144;27;87109;-51
2023/05/05 00:50:38;;;;;;;1.00;0.70;;;;;;;;;;5062907;27;88079;-50
2023/05/05 00:53:06;;;;;;;1.37;1.00;;;;;;;;;;5063390;27;88791;-51
2023/05/05 00:55:35;;;;;;;1.00;0.90;;;;;;;;;;5063861;27;87134;-50
2023/05/05 00:58:03;;;;;;;0.90;0.90;;;;;;;;;;5063410;27;86869;-51
2023/05/05 01:00:32;;;;;;;1.50;1.20;;;;;;;;;;5059243;27;89063;-50
2023/05/05 01:03:01;;;;;;;1.07;1.00;;;;;;;;;;5053859;27;89756;-50
2023/05/05 01:05:33;;;;;;;1.87;1.20;;;;;;;;;;5062534;27;87570;-50
2023/05/05 01:08:04;;;;;;;2.90;1.23;;;;;;;;;;5064249;27;87037;-50
2023/05/05 01:10:34;;;;;;;1.10;1.10;;;;;;;;;;5063897;27;87948;-50
2023/05/05 01:13:04;;;;;;;2.30;1.03;;;;;;;;;;5060522;27;89204;-50
2023/05/05 01:15:32;;;;;;;2.33;1.33;;;;;;;;;;5055923;27;87020;-50
2023/05/05 01:18:04;;;;;;;1.23;1.00;;;;;;;;;;5062936;27;86420;-50
2023/05/05 01:20:34;;;;;;;1.00;0.90;;;;;;;;;;5054834;27;88118;-50
2023/05/05 01:23:03;;;;;;;1.63;1.20;;;;;;;;;;5060783;27;87549;-50
2023/05/05 01:25:36;;;;;;;0.73;0.73;;;;;;;;;;5058304;27;88026;-50
2023/05/05 01:28:20;;;;;;;2.73;1.43;;;;;;;;;;5050727;27;87054;-50
2023/05/05 01:30:58;;;;;;;1.00;0.90;;;;;;;;;;5061986;27;88133;-50
2023/05/05 01:33:29;;;;;;;1.37;1.27;;;;;;;;;;5053730;27;87931;-50
2023/05/05 01:35:58;;;;;;;1.47;1.10;;;;;;;;;;5056090;27;87059;-50
2023/05/05 01:38:28;;;;;;;1.40;1.30;;;;;;;;;;5053081;27;87000;-50
2023/05/05 01:40:57;;;;;;;0.73;0.73;;;;;;;;;;5045814;27;88496;-50
2023/05/05 01:43:25;;;;;;;1.03;0.77;;;;;;;;;;5050944;27;86667;-50
2023/05/05 01:45:54;;;;;;;1.40;1.13;;;;;;;;;;5061731;27;87178;-50
2023/05/05 01:48:22;;;;;;;2.03;0.80;;;;;;;;;;5058774;27;87132;-50
2023/05/05 01:50:52;;;;;;;1.00;0.87;;;;;;;;;;5060468;27;89152;-50
2023/05/05 01:53:20;;;;;;;1.10;0.83;;;;;;;;;;5061955;27;87047;-50
2023/05/05 01:55:48;;;;;;;1.03;0.93;;;;;;;;;;5057779;27;87100;-50
2023/05/05 01:58:17;;;;;;;0.80;0.80;;;;;;;;;;5061561;27;87082;-50
2023/05/05 02:00:45;;;;;;;1.47;0.87;;;;;;;;;;5048264;27;89195;-50
2023/05/05 02:03:14;;;;;;;1.10;1.00;;;;;;;;;;5048135;27;87618;-50
2023/05/05 02:05:42;;;;;;;1.53;0.77;;;;;;;;;;5061990;27;87847;-50
2023/05/05 02:08:12;;;;;;;1.63;0.70;;;;;;;;;;5056297;27;88580;-50
2023/05/05 02:10:40;;;;;;;0.90;0.90;;;;;;;;;;5061009;27;88127;-50
2023/05/05 02:13:08;;;;;;;0.70;0.70;;;;;;;;;;5056246;27;87770;-50
2023/05/05 02:15:37;;;;;;;1.33;0.90;;;;;;;;;;5061579;27;89694;-50
2023/05/05 02:18:06;;;;;;;1.33;1.23;;;;;;;;;;5056222;27;88780;-50
2023/05/05 02:20:34;;;;;;;0.93;0.83;;;;;;;;;;5060973;27;89192;-50
2023/05/05 02:23:04;;;;;;;1.97;1.07;;;;;;;;;;5059794;27;87838;-50
2023/05/05 02:25:36;;;;;;;1.30;0.77;;;;;;;;;;5052116;27;88310;-50
2023/05/05 02:28:04;;;;;;;1.53;0.93;;;;;;;;;;5061849;27;87195;-50
2023/05/05 02:30:32;;;;;;;0.67;0.67;;;;;;;;;;5053482;27;89255;-50
2023/05/05 02:33:02;;;;;;;0.70;0.70;;;;;;;;;;5049389;27;87429;-50
2023/05/05 02:35:32;;;;;;;0.73;0.73;;;;;;;;;;5062286;27;86836;-50
2023/05/05 02:38:04;;;;;;;1.00;1.00;;;;;;;;;;5061714;27;87014;-50
2023/05/05 02:40:34;;;;;;;1.27;1.10;;;;;;;;;;5063966;27;89053;-50
2023/05/05 02:43:04;;;;;;;0.93;0.83;;;;;;;;;;5060867;27;88893;-50
2023/05/05 02:45:32;;;;;;;0.90;0.90;;;;;;;;;;5054276;27;87029;-50
2023/05/05 02:48:02;;;;;;;0.93;0.93;;;;;;;;;;5059680;27;88677;-50
2023/05/05 02:50:31;;;;;;;0.50;0.50;;;;;;;;;;5060641;27;89147;-50
2023/05/05 02:52:59;;;;;;;1.37;0.93;;;;;;;;;;5062113;27;87900;-50
2023/05/05 02:55:28;;;;;;;1.10;0.90;;;;;;;;;;5059983;27;87032;-50
2023/05/05 02:58:07;;;;;;;2.07;0.90;;;;;;;;;;5056619;27;86304;-50
2023/05/05 03:00:37;;;;;;;2.33;0.60;;;;;;;;;;5051369;27;89021;-50
2023/05/05 03:03:08;;;;;;;2.60;1.37;;;;;;;;;;5050855;27;87962;-50
2023/05/05 03:05:38;;;;;;;0.63;0.63;;;;;;;;;;5060167;27;89108;-50
2023/05/05 03:08:09;;;;;;;1.13;0.97;;;;;;;;;;5062502;27;86826;-50
2023/05/05 03:10:40;;;;;;;0.60;0.53;;;;;;;;;;5061422;27;88052;-50
2023/05/05 03:13:10;;;;;;;0.60;0.60;;;;;;;;;;5061849;27;88880;-50
2023/05/05 03:15:40;;;;;;;0.63;0.60;;;;;;;;;;5055132;27;87274;-50
2023/05/05 03:18:10;;;;;;;0.67;0.67;;;;;;;;;;5049054;27;87734;-51
2023/05/05 03:20:38;;;;;;;1.40;0.90;;;;;;;;;;5059468;27;89178;-52
2023/05/05 03:23:07;;;;;;;2.73;1.10;;;;;;;;;;5062390;27;87854;-50
2023/05/05 03:25:44;;;;;;;0.50;0.50;;;;;;;;;;5059289;27;87239;-50
2023/05/05 03:28:14;;;;;;;0.60;0.60;;;;;;;;;;5051486;27;87042;-50
2023/05/05 03:30:43;;;;;;;0.90;0.80;;;;;;;;;;5047189;27;89967;-50
2023/05/05 03:33:11;;;;;;;2.03;1.23;;;;;;;;;;5041579;27;88682;-49
2023/05/05 03:35:39;;;;;;;0.77;0.63;;;;;;;;;;5055894;27;87011;-52
2023/05/05 03:38:08;;;;;;;0.93;0.53;;;;;;;;;;5061033;27;87641;-52
2023/05/05 03:40:36;;;;;;;0.93;0.80;;;;;;;;;;5061293;27;88199;-52
2023/05/05 03:43:11;;;;;;;0.50;0.50;;;;;;;;;;5061404;27;87706;-52
2023/05/05 03:45:41;;;;;;;3.20;0.87;;;;;;;;;;5050202;27;88844;-52
2023/05/05 03:48:09;;;;;;;0.70;0.70;;;;;;;;;;5059337;27;88058;-52
2023/05/05 03:50:38;;;;;;;0.70;0.70;;;;;;;;;;5049144;27;88147;-52
2023/05/05 03:53:06;;;;;;;1.40;0.53;;;;;;;;;;5055700;27;87545;-52
2023/05/05 03:55:34;;;;;;;0.83;0.70;;;;;;;;;;5059207;27;87982;-49
2023/05/05 03:58:03;;;;;;;0.60;0.60;;;;;;;;;;5051134;27;87021;-52
2023/05/05 04:00:31;;;;;;;0.60;0.60;;;;;;;;;;5056818;27;89228;-50
2023/05/05 04:03:00;;;;;;;0.40;0.40;;;;;;;;;;5047493;27;87896;-52
2023/05/05 04:05:29;;;;;;;0.70;0.60;;;;;;;;;;5054701;27;89339;-50
2023/05/05 04:07:57;;;;;;;0.50;0.50;;;;;;;;;;5041524;28;86909;-50
2023/05/05 04:10:26;;;;;;;0.53;0.53;;;;;;;;;;5049080;27;89250;-50
2023/05/05 04:12:54;;;;;;;0.60;0.60;;;;;;;;;;5060159;27;88961;-50
2023/05/05 04:15:22;;;;;;;0.60;0.60;;;;;;;;;;5049407;27;87137;-50
2023/05/05 04:17:51;;;;;;;0.67;0.67;;;;;;;;;;5050877;27;87050;-50
2023/05/05 04:20:20;;;;;;;1.73;0.70;;;;;;;;;;5056013;27;90171;-50
2023/05/05 04:22:50;;;;;;;0.60;0.60;;;;;;;;;;5043910;27;89601;-50
2023/05/05 04:25:20;;;;;;;1.00;0.83;;;;;;;;;;5053379;27;86985;-50
2023/05/05 04:27:48;;;;;;;0.93;0.80;;;;;;;;;;5059737;27;86841;-50
2023/05/05 04:30:16;;;;;;;0.60;0.60;;;;;;;;;;5059931;27;89188;-50
2023/05/05 04:32:44;;;;;;;0.50;0.50;;;;;;;;;;5054590;27;88553;-50
2023/05/05 04:35:13;;;;;;;0.40;0.40;;;;;;;;;;5050657;27;87199;-50
2023/05/05 04:37:42;;;;;;;0.60;0.60;;;;;;;;;;5051170;27;86087;-50
2023/05/05 04:40:11;;;;;;;0.50;0.50;;;;;;;;;;5055237;27;89157;-50
2023/05/05 04:42:39;;;;;;;0.83;0.60;;;;;;;;;;5063949;27;89038;-50
2023/05/05 04:45:09;;;;;;;1.17;0.90;;;;;;;;;;5062409;27;89696;-50
2023/05/05 04:47:37;;;;;;;0.50;0.50;;;;;;;;;;5077390;27;86902;-50
2023/05/05 04:50:06;;;;;;;0.87;0.60;;;;;;;;;;5071941;27;89035;-50
2023/05/05 04:52:35;;;;;;;0.70;0.70;;;;;;;;;;5053973;27;88070;-50
2023/05/05 04:55:05;;;;;;;1.63;0.70;;;;;;;;;;5063521;27;87056;-50
2023/05/05 04:57:33;;;;;;;0.70;0.70;;;;;;;;;;5063260;27;88202;-50
2023/05/05 05:00:03;;;;;;;0.90;0.80;;;;;;;;;;5059329;27;89201;-50
2023/05/05 05:02:31;;;;;;;1.80;1.40;;;;;;;;;;5055982;27;87874;-49
2023/05/05 05:05:00;;;;;;;2.00;1.47;;;;;;;;;;5064114;27;87085;-50
2023/05/05 05:07:28;;;;;;;3.87;2.13;;;;;;;;;;5064473;27;86892;-49
2023/05/05 05:09:56;;;;;;;3.13;2.00;;;;;;;;;;5063642;27;89125;-50
2023/05/05 05:12:26;;;;;;;1.93;1.43;;;;;;;;;;5047780;27;89985;-50
2023/05/05 05:14:54;;;;;;;2.20;1.90;;;;;;;;;;5054555;27;87006;-54
2023/05/05 05:17:23;;;;;;;2.27;1.73;;;;;;;;;;5045129;27;87071;-55
2023/05/05 05:19:53;;;;;;;3.33;1.70;;;;;;;;;;5054330;27;89808;-55
2023/05/05 05:22:21;;;;;;;4.23;2.20;;;;;;;;;;5049531;27;87614;-55
2023/05/05 05:24:51;;;;;;;3.03;1.80;;;;;;;;;;5058000;27;87076;-55
2023/05/05 05:27:19;;;;;;;2.90;1.73;;;;;;;;;;5053673;27;86173;-55
2023/05/05 05:29:48;;;;;;;2.63;2.43;;;;;;;;;;5049818;27;88123;-56
2023/05/05 05:32:17;;;;;;;3.83;1.93;;;;;;;;;;5057826;27;88589;-55
2023/05/05 05:34:45;;;;;;;2.53;1.80;;;;;;;;;;5057225;27;89533;-57
2023/05/05 05:37:13;;;;;;;4.33;2.33;;;;;;;;;;5049613;27;87083;-55
2023/05/05 05:39:42;;;;;;;3.60;1.97;;;;;;;;;;5061312;27;88113;-53
2023/05/05 05:42:11;;;;;;;3.03;2.10;;;;;;;;;;5059259;27;87571;-52
2023/05/05 05:44:39;;;;;;;3.00;1.90;;;;;;;;;;5059514;27;87126;-52
2023/05/05 05:47:09;;;;;;;2.07;1.83;;;;;;;;;;5061573;27;88932;-55
2023/05/05 05:49:37;;;;;;;2.73;1.80;;;;;;;;;;5059802;27;88313;-56
2023/05/05 05:52:05;;;;;;;2.13;1.40;;;;;;;;;;5053574;27;88026;-55
2023/05/05 05:54:34;;;;;;;2.03;1.67;;;;;;;;;;5063502;27;87125;-55
2023/05/05 05:57:02;;;;;;;2.10;1.90;;;;;;;;;;5067811;27;86980;-57
2023/05/05 05:59:31;;;;;;;3.97;1.90;;;;;;;;;;5057785;27;89230;-55
2023/05/05 06:01:59;;;;;;;3.23;2.20;;;;;;;;;;5062418;27;89802;-55
2023/05/05 06:04:29;;;;;;;2.10;1.67;;;;;;;;;;5056647;27;88082;-55
2023/05/05 06:06:58;;;;;;;2.33;1.80;;;;;;;;;;5060025;27;88354;-55
2023/05/05 06:09:26;;;;;;;3.93;1.93;;;;;;;;;;5056793;27;88002;-55
2023/05/05 06:11:54;;;;;;;2.40;1.67;;;;;;;;;;5054758;27;87633;-55
2023/05/05 06:14:22;;;;;;;2.67;1.63;;;;;;;;;;5062040;27;87326;-49
2023/05/05 06:16:51;;;;;;;2.00;1.43;;;;;;;;;;5053644;27;86262;-54
2023/05/05 06:19:20;;;;;;;3.70;1.83;;;;;;;;;;5061251;27;89503;-55
2023/05/05 06:21:49;;;;;;;2.63;1.30;;;;;;;;;;5059642;27;87753;-55
2023/05/05 06:24:18;;;;;;;3.33;1.90;;;;;;;;;;5059460;27;89539;-56
2023/05/05 06:26:46;;;;;;;3.10;1.70;;;;;;;;;;5058842;27;88168;-55
2023/05/05 06:29:14;;;;;;;1.97;1.77;;;;;;;;;;5060574;27;87945;-55
2023/05/05 06:31:43;;;;;;;3.13;2.10;;;;;;;;;;5060358;27;87933;-55
2023/05/05 06:34:11;;;;;;;3.33;1.80;;;;;;;;;;5055354;27;87083;-55
2023/05/05 06:36:39;;;;;;;2.40;1.83;;;;;;;;;;5042394;27;86859;-55
2023/05/05 06:39:09;;;;;;;2.67;1.87;;;;;;;;;;5054928;27;87106;-55
2023/05/05 06:41:37;;;;;;;3.20;1.50;;;;;;;;;;5059841;27;87737;-55
2023/05/05 06:44:06;;;;;;;2.00;1.70;;;;;;;;;;5060439;27;87124;-55
2023/05/05 06:46:35;;;;;;;2.57;1.93;;;;;;;;;;5056301;27;87637;-55
2023/05/05 06:49:03;;;;;;;2.70;1.67;;;;;;;;;;5054760;27;90065;-56
2023/05/05 06:51:31;;;;;;;3.50;1.90;;;;;;;;;;5055365;27;88816;-56
2023/05/05 06:54:00;;;;;;;2.73;1.50;;;;;;;;;;5050370;27;87129;-56
2023/05/05 06:56:29;;;;;;;2.97;2.13;;;;;;;;;;5061869;27;87042;-56
2023/05/05 06:58:58;;;;;;;1.37;1.20;;;;;;;;;;5057074;27;88893;-56
2023/05/05 07:01:26;;;;;;;1.70;1.47;;;;;;;;;;5045189;27;87854;-56
2023/05/05 07:03:54;;;;;;;5.57;1.80;;;;;;;;;;5061688;27;87113;-56
2023/05/05 07:06:23;;;;;;;2.27;1.43;;;;;;;;;;5063101;27;86154;-56
2023/05/05 07:08:51;;;;;;;3.27;1.70;;;;;;;;;;5061566;27;89163;-56
2023/05/05 07:11:20;;;;;;;2.00;1.37;;;;;;;;;;5061976;27;88939;-56
2023/05/05 07:13:49;;;;;;;4.30;1.60;;;;;;;;;;5061554;27;88463;-56
2023/05/05 07:16:18;;;;;;;2.77;1.67;;;;;;;;;;5055297;27;87068;-55
2023/05/05 07:18:46;;;;;;;1.43;0.93;;;;;;;;;;5061277;27;88242;-55
2023/05/05 07:21:14;;;;;;;1.63;1.53;;;;;;;;;;5055571;27;87977;-56
2023/05/05 07:23:45;;;;;;;1.33;1.07;;;;;;;;;;5049330;27;87044;-55
2023/05/05 07:26:13;;;;;;;1.10;0.93;;;;;;;;;;5061009;27;87285;-55
2023/05/05 07:28:41;;;;;;;1.60;1.07;;;;;;;;;;5060833;27;89086;-55
2023/05/05 07:31:11;;;;;;;3.27;1.70;;;;;;;;;;5060189;27;88831;-55
2023/05/05 07:33:40;;;;;;;3.57;1.17;;;;;;;;;;5060999;27;87092;-55
2023/05/05 07:36:08;;;;;;;1.00;0.80;;;;;;;;;;5059565;27;87079;-56
2023/05/05 07:38:36;;;;;;;1.13;1.03;;;;;;;;;;5055913;27;89029;-53
2023/05/05 07:41:05;;;;;;;2.73;1.33;;;;;;;;;;5058354;27;88727;-53
2023/05/05 07:43:33;;;;;;;2.10;1.60;;;;;;;;;;5059966;27;87027;-54
2023/05/05 07:46:01;;;;;;;0.70;0.70;;;;;;;;;;5055497;27;87185;-53
2023/05/05 07:48:31;;;;;;;1.07;0.97;;;;;;;;;;5048740;27;89294;-53
2023/05/05 07:50:59;;;;;;;0.97;0.97;;;;;;;;;;5055983;27;87751;-53
2023/05/05 07:53:28;;;;;;;1.30;0.80;;;;;;;;;;5059504;27;87056;-54
2023/05/05 07:55:56;;;;;;;1.10;0.90;;;;;;;;;;5056928;27;88001;-52
2023/05/05 07:58:24;;;;;;;1.23;1.13;;;;;;;;;;5041252;27;87051;-53
2023/05/05 08:00:53;;;;;;;0.77;0.57;;;;;;;;;;5047073;27;87953;-53
2023/05/05 08:03:23;;;;;;;1.20;0.90;;;;;;;;;;5076934;27;87944;-53
2023/05/05 08:05:53;;;;;;;1.27;0.77;;;;;;;;;;5057139;27;87116;-53
2023/05/05 08:08:23;;;;;;;1.77;1.03;;;;;;;;;;5041210;27;89196;-53
2023/05/05 08:10:53;;;;;;;0.70;0.70;;;;;;;;;;5058758;27;87059;-53
2023/05/05 08:13:21;;;;;;;0.73;0.73;;;;;;;;;;5064973;27;86888;-53
2023/05/05 08:15:49;;;;;;;0.57;0.57;;;;;;;;;;5054251;27;87348;-54
2023/05/05 08:18:18;;;;;;;0.77;0.67;;;;;;;;;;5060951;27;88083;-53
2023/05/05 08:20:46;;;;;;;2.10;1.20;;;;;;;;;;5068182;27;87929;-53
2023/05/05 08:23:16;;;;;;;2.20;0.90;;;;;;;;;;5085392;27;87071;-54
2023/05/05 08:25:44;;;;;;;1.27;0.90;;;;;;;;;;5069138;27;87047;-53
2023/05/05 08:28:12;;;;;;;2.77;1.00;;;;;;;;;;5062430;27;88046;-53
2023/05/05 08:30:41;;;;;;;0.90;0.60;;;;;;;;;;5062815;27;88702;-53
2023/05/05 08:33:09;;;;;;;1.57;0.80;;;;;;;;;;5056103;27;88003;-54
2023/05/05 08:35:38;;;;;;;3.50;0.70;;;;;;;;;;5053145;27;86963;-54
2023/05/05 08:38:06;;;;;;;1.30;0.70;;;;;;;;;;5044759;27;87904;-53
2023/05/05 08:40:36;;;;;;;1.43;0.53;;;;;;;;;;5060292;27;87190;-54
2023/05/05 08:43:05;;;;;;;0.97;0.87;;;;;;;;;;5045625;27;86901;-54
2023/05/05 08:45:33;;;;;;;1.13;0.60;;;;;;;;;;5056241;27;86377;-54
2023/05/05 08:48:02;;;;;;;2.27;0.90;;;;;;;;;;5062431;27;88022;-53
2023/05/05 08:50:30;;;;;;;1.90;0.80;;;;;;;;;;5048307;27;87082;-54
2023/05/05 08:52:59;;;;;;;0.70;0.60;;;;;;;;;;5043869;27;87859;-54
2023/05/05 08:55:27;;;;;;;0.77;0.60;;;;;;;;;;5051236;27;87057;-53
2023/05/05 08:57:57;;;;;;;2.20;0.80;;;;;;;;;;5060628;27;88117;-54
2023/05/05 09:00:26;;;;;;;2.00;0.50;;;;;;;;;;5057228;27;88872;-54
2023/05/05 09:02:55;;;;;;;1.60;0.67;;;;;;;;;;5053815;27;87181;-54
2023/05/05 09:05:24;;;;;;;1.43;0.90;;;;;;;;;;5064585;27;86695;-54
2023/05/05 09:07:52;;;;;;;1.10;0.80;;;;;;;;;;5064155;27;89266;-53
2023/05/05 09:10:21;;;;;;;1.20;0.80;;;;;;;;;;5064539;27;88962;-53
2023/05/05 09:12:50;;;;;;;0.63;0.60;;;;;;;;;;5064533;27;86797;-54
2023/05/05 09:15:20;;;;;;;1.43;0.60;;;;;;;;;;5061884;27;87183;-54
2023/05/05 09:17:48;;;;;;;0.50;0.50;;;;;;;;;;5061373;27;90117;-54
2023/05/05 09:20:16;;;;;;;1.57;1.00;;;;;;;;;;5063669;27;87570;-54
2023/05/05 09:22:45;;;;;;;0.70;0.60;;;;;;;;;;5064117;27;86869;-54
2023/05/05 09:25:14;;;;;;;0.43;0.43;;;;;;;;;;5063504;27;87077;-54
2023/05/05 09:27:44;;;;;;;1.10;0.70;;;;;;;;;;5064237;27;89149;-54
2023/05/05 09:30:14;;;;;;;1.00;0.40;;;;;;;;;;5063451;27;87930;-54
2023/05/05 09:32:47;;;;;;;0.50;0.50;;;;;;;;;;5063500;27;87000;-56
2023/05/05 09:35:16;;;;;;;0.60;0.60;;;;;;;;;;5050662;27;87164;-54
2023/05/05 09:37:44;;;;;;;0.50;0.50;;;;;;;;;;5061803;27;88266;-53
2023/05/05 09:40:13;;;;;;;0.80;0.47;;;;;;;;;;5063939;27;87601;-56
2023/05/05 09:42:41;;;;;;;0.50;0.50;;;;;;;;;;5061591;27;87912;-55
2023/05/05 09:45:24;;;;;;;0.70;0.70;;;;;;;;;;5063644;27;87006;-54
2023/05/05 09:47:54;;;;;;;0.60;0.60;;;;;;;;;;5048315;27;87862;-53
2023/05/05 09:50:29;;;;;;;0.50;0.40;;;;;;;;;;5048781;27;87767;-53
2023/05/05 09:52:58;;;;;;;0.97;0.60;;;;;;;;;;5043257;27;87112;-54
2023/05/05 09:55:26;;;;;;;1.10;0.70;;;;;;;;;;5053237;27;86976;-53
2023/05/05 09:57:55;;;;;;;2.63;0.47;;;;;;;;;;5063424;27;88230;-54
2023/05/05 10:00:24;;;;;;;0.73;0.73;;;;;;;;;;5063348;27;87811;-54
2023/05/05 10:02:52;;;;;;;1.17;0.90;;;;;;;;;;5063084;27;87198;-54
2023/05/05 10:05:22;;;;;;;0.83;0.50;;;;;;;;;;5063517;27;87169;-54
2023/05/05 10:07:50;;;;;;;0.50;0.50;;;;;;;;;;5060220;27;89426;-54
2023/05/05 10:10:19;;;;;;;0.73;0.70;;;;;;;;;;5043454;27;89905;-53
2023/05/05 10:12:48;;;;;;;0.60;0.60;;;;;;;;;;5060588;27;87070;-54
2023/05/05 10:15:16;;;;;;;2.03;0.70;;;;;;;;;;5063379;27;87035;-54
2023/05/05 10:17:46;;;;;;;1.90;0.90;;;;;;;;;;5062760;27;88262;-53
2023/05/05 10:20:35;;;;;;;0.70;0.70;;;;;;;;;;5063069;27;87447;-54
2023/05/05 10:23:04;;;;;;;0.60;0.60;;;;;;;;;;5063226;27;87114;-53
2023/05/05 10:25:34;;;;;;;1.00;0.70;;;;;;;;;;5063715;27;86388;-54
2023/05/05 10:28:02;;;;;;;0.40;0.40;;;;;;;;;;5063013;27;89095;-54
2023/05/05 10:30:31;;;;;;;0.53;0.50;;;;;;;;;;5062263;27;89150;-55
2023/05/05 10:33:01;;;;;;;3.43;0.50;;;;;;;;;;5062035;27;87883;-55
2023/05/05 10:35:51;;;;;;;0.83;0.63;;;;;;;;;;5062823;27;86941;-54
2023/05/05 10:38:20;;;;;;;0.50;0.50;;;;;;;;;;5062963;27;87975;-54
2023/05/05 10:40:48;;;;;;;1.13;0.40;;;;;;;;;;5062535;27;87948;-54
2023/05/05 10:43:17;;;;;;;0.50;0.50;;;;;;;;;;5062954;27;87047;-53
2023/05/05 10:45:45;;;;;;;0.47;0.47;;;;;;;;;;5062238;27;86986;-53
2023/05/05 10:48:15;;;;;;;0.47;0.47;;;;;;;;;;5062164;27;87923;-54
2023/05/05 10:50:45;;;;;;;0.60;0.47;;;;;;;;;;5063063;27;87566;-54
2023/05/05 10:53:16;;;;;;;0.50;0.50;;;;;;;;;;5062516;27;86903;-54
2023/05/05 10:55:45;;;;;;;1.33;1.00;;;;;;;;;;5062750;27;87094;-54
2023/05/05 10:58:28;;;;;;;1.17;0.70;;;;;;;;;;5061831;27;88873;-54
2023/05/05 11:00:57;;;;;;;2.53;1.10;;;;;;;;;;5062292;27;88849;-54
2023/05/05 11:03:25;;;;;;;0.63;0.63;;;;;;;;;;5062688;27;86959;-53
2023/05/05 11:06:11;;;;;;;0.50;0.50;;;;;;;;;;5062271;27;87005;-53
2023/05/05 11:08:41;;;;;;;0.93;0.60;;;;;;;;;;5062519;27;89203;-54
2023/05/05 11:11:10;;;;;;;0.60;0.53;;;;;;;;;;5062500;27;87815;-53
2023/05/05 11:13:38;;;;;;;1.77;0.83;;;;;;;;;;5062773;27;86866;-53
2023/05/05 11:16:07;;;;;;;1.10;0.90;;;;;;;;;;5062500;27;86342;-52
2023/05/05 11:18:36;;;;;;;0.70;0.60;;;;;;;;;;5061893;27;88088;-53
2023/05/05 11:21:06;;;;;;;2.40;0.83;;;;;;;;;;5062159;27;87756;-54
2023/05/05 11:23:34;;;;;;;0.60;0.60;;;;;;;;;;5062064;27;87839;-53
2023/05/05 11:26:04;;;;;;;2.10;0.53;;;;;;;;;;5062100;27;87068;-54
2023/05/05 11:28:32;;;;;;;0.60;0.60;;;;;;;;;;5061628;27;88240;-53
2023/05/05 11:31:16;;;;;;;1.33;0.77;;;;;;;;;;5061473;27;87935;-53
2023/05/05 11:33:45;;;;;;;1.63;0.53;;;;;;;;;;5061877;27;87073;-53
2023/05/05 11:36:13;;;;;;;0.40;0.40;;;;;;;;;;5062008;27;87054;-53
2023/05/05 11:38:43;;;;;;;0.50;0.50;;;;;;;;;;5062144;27;89171;-54
2023/05/05 11:41:13;;;;;;;1.00;0.90;;;;;;;;;;5061694;27;87741;-53
2023/05/05 11:43:41;;;;;;;0.60;0.60;;;;;;;;;;5063200;27;86886;-54
2023/05/05 11:46:10;;;;;;;1.07;1.07;;;;;;;;;;5065475;27;87059;-54
2023/05/05 11:48:45;;;;;;;2.93;0.70;;;;;;;;;;5064605;27;90187;-53
2023/05/05 11:51:14;;;;;;;1.93;0.87;;;;;;;;;;5065342;27;89488;-54
2023/05/05 11:53:42;;;;;;;0.83;0.83;;;;;;;;;;5065267;27;87047;-54
2023/05/05 11:56:17;;;;;;;0.93;0.63;;;;;;;;;;5065444;27;86900;-53
2023/05/05 11:58:45;;;;;;;1.83;0.40;;;;;;;;;;5064937;27;88150;-54
2023/05/05 12:01:14;;;;;;;0.70;0.57;;;;;;;;;;5064898;27;88873;-53
2023/05/05 12:03:44;;;;;;;2.23;1.03;;;;;;;;;;5065361;27;86949;-53
2023/05/05 12:06:13;;;;;;;1.60;0.93;;;;;;;;;;5065269;27;86232;-54
2023/05/05 12:08:41;;;;;;;0.67;0.67;;;;;;;;;;5065387;27;89009;-53
2023/05/05 12:11:10;;;;;;;2.30;1.10;;;;;;;;;;5065337;27;88857;-54
2023/05/05 12:13:40;;;;;;;1.70;0.80;;;;;;;;;;5064875;27;87995;-54
2023/05/05 12:16:09;;;;;;;0.63;0.63;;;;;;;;;;5065074;27;87099;-54
2023/05/05 12:18:38;;;;;;;1.10;0.70;;;;;;;;;;5064388;27;88186;-54
2023/05/05 12:21:13;;;;;;;1.47;1.20;;;;;;;;;;5064508;27;87980;-54
2023/05/05 12:23:41;;;;;;;1.80;1.10;;;;;;;;;;5064571;27;87034;-54
2023/05/05 12:26:23;;;;;;;0.87;0.73;;;;;;;;;;5064519;27;86908;-53
2023/05/05 12:28:53;;;;;;;1.63;1.03;;;;;;;;;;5064181;27;88159;-54
2023/05/05 12:31:21;;;;;;;0.90;0.80;;;;;;;;;;5064765;27;86487;-53
2023/05/05 12:33:50;;;;;;;1.40;1.20;;;;;;;;;;5065161;27;86731;-53
2023/05/05 12:36:18;;;;;;;3.27;1.43;;;;;;;;;;5064904;27;86893;-54
2023/05/05 12:38:46;;;;;;;1.30;1.20;;;;;;;;;;5064148;27;89025;-53
2023/05/05 12:41:18;;;;;;;2.47;1.00;;;;;;;;;;5064868;27;88491;-53
2023/05/05 12:43:47;;;;;;;1.00;0.90;;;;;;;;;;5064998;27;86865;-52
2023/05/05 12:46:17;;;;;;;1.20;1.07;;;;;;;;;;5065104;27;87011;-53
2023/05/05 12:48:45;;;;;;;2.37;0.90;;;;;;;;;;5064516;27;89136;-54
2023/05/05 12:51:19;;;;;;;3.77;1.30;;;;;;;;;;5064401;27;87071;-54
2023/05/05 12:53:48;;;;;;;1.73;1.13;;;;;;;;;;5063957;27;87077;-54
2023/05/05 12:56:34;;;;;;;1.27;1.00;;;;;;;;;;5064326;27;86072;-54
2023/05/05 12:59:03;;;;;;;1.60;1.30;;;;;;;;;;5063641;27;88218;-53
2023/05/05 13:01:33;;;;;;;2.33;1.20;;;;;;;;;;5064273;27;88025;-53
2023/05/05 13:04:05;;;;;;;0.93;0.90;;;;;;;;;;5064153;27;87977;-53
2023/05/05 13:06:34;;;;;;;0.97;0.80;;;;;;;;;;5064334;27;86930;-53
2023/05/05 13:09:03;;;;;;;2.03;1.10;;;;;;;;;;5064434;27;89488;-54
2023/05/05 13:11:31;;;;;;;2.03;1.20;;;;;;;;;;5064445;27;88924;-54
2023/05/05 13:13:59;;;;;;;2.50;1.10;;;;;;;;;;5064745;27;87022;-53
2023/05/05 13:16:28;;;;;;;2.70;1.57;;;;;;;;;;5064310;27;87089;-54
2023/05/05 13:18:57;;;;;;;1.13;0.90;;;;;;;;;;5063927;27;88904;-53
2023/05/05 13:21:26;;;;;;;1.60;1.00;;;;;;;;;;5064561;27;87856;-54
2023/05/05 13:23:55;;;;;;;1.93;0.97;;;;;;;;;;5064543;27;87030;-54
2023/05/05 13:26:35;;;;;;;0.80;0.77;;;;;;;;;;5064418;27;86935;-53
2023/05/05 13:29:04;;;;;;;1.40;1.10;;;;;;;;;;5063495;27;89930;-53
2023/05/05 13:31:32;;;;;;;3.23;0.90;;;;;;;;;;5063883;27;89923;-53
2023/05/05 13:34:02;;;;;;;0.97;0.87;;;;;;;;;;5064178;27;86992;-55
2023/05/05 13:36:30;;;;;;;1.77;1.37;;;;;;;;;;5063955;27;87118;-54
2023/05/05 13:38:58;;;;;;;1.30;1.07;;;;;;;;;;5063599;27;89233;-54
2023/05/05 13:41:27;;;;;;;3.73;1.40;;;;;;;;;;5063633;27;88739;-54
2023/05/05 13:43:55;;;;;;;2.20;1.20;;;;;;;;;;5063825;27;86720;-54
2023/05/05 13:46:23;;;;;;;0.80;0.80;;;;;;;;;;5064466;27;86355;-54
2023/05/05 13:48:52;;;;;;;2.33;1.00;;;;;;;;;;5063612;27;87720;-54
2023/05/05 13:51:25;;;;;;;1.47;0.90;;;;;;;;;;5063749;27;87990;-54
2023/05/05 13:53:53;;;;;;;1.80;1.17;;;;;;;;;;5063370;27;87988;-53
2023/05/05 13:56:24;;;;;;;3.03;1.07;;;;;;;;;;5063773;27;87034;-53
2023/05/05 13:58:53;;;;;;;0.93;0.77;;;;;;;;;;5063660;27;89239;-54
2023/05/05 14:01:21;;;;;;;1.43;0.80;;;;;;;;;;5063712;27;88883;-54
2023/05/05 14:03:50;;;;;;;0.63;0.63;;;;;;;;;;5063384;27;87040;-54
2023/05/05 14:06:18;;;;;;;1.20;1.03;;;;;;;;;;5063258;27;86770;-54
2023/05/05 14:08:48;;;;;;;2.27;0.90;;;;;;;;;;5063459;27;89095;-54
2023/05/05 14:11:16;;;;;;;0.87;0.70;;;;;;;;;;5063657;27;86502;-53
2023/05/05 14:13:46;;;;;;;2.23;0.90;;;;;;;;;;5063331;27;86810;-54
2023/05/05 14:16:14;;;;;;;0.87;0.87;;;;;;;;;;5063883;27;87069;-54
2023/05/05 14:18:43;;;;;;;1.20;0.80;;;;;;;;;;5061984;27;87916;-54
2023/05/05 14:21:11;;;;;;;1.10;0.90;;;;;;;;;;5063006;27;87470;-54
2023/05/05 14:23:39;;;;;;;1.20;0.93;;;;;;;;;;5063431;27;86985;-54
2023/05/05 14:26:09;;;;;;;3.63;1.87;;;;;;;;;;5063390;27;86878;-54
2023/05/05 14:28:37;;;;;;;2.13;0.80;;;;;;;;;;5062708;27;88297;-54
2023/05/05 14:31:06;;;;;;;1.07;1.00;;;;;;;;;;5063076;27;87850;-54
2023/05/05 14:33:34;;;;;;;1.60;1.10;;;;;;;;;;5063058;27;87024;-53
2023/05/05 14:36:03;;;;;;;3.27;1.27;;;;;;;;;;5063520;27;86263;-54
2023/05/05 14:38:31;;;;;;;1.90;1.07;;;;;;;;;;5062700;27;88080;-54
2023/05/05 14:40:59;;;;;;;0.60;0.60;;;;;;;;;;5062378;27;87838;-55
2023/05/05 14:43:29;;;;;;;1.60;1.10;;;;;;;;;;5062633;27;87946;-53
2023/05/05 14:45:59;;;;;;;1.67;1.07;;;;;;;;;;5062753;27;87118;-53
2023/05/05 14:48:28;;;;;;;0.87;0.60;;;;;;;;;;5061949;27;88134;-54
2023/05/05 14:50:56;;;;;;;1.33;1.00;;;;;;;;;;5062664;27;87552;-55
2023/05/05 14:53:24;;;;;;;0.83;0.83;;;;;;;;;;5062487;27;86923;-54
2023/05/05 14:55:53;;;;;;;2.50;1.13;;;;;;;;;;5062783;27;86926;-55